Terminal Aerodrome Forecast
Issued by NWS

Home | Current Version | Previous Version | Text Only | Print | Product List | Glossary On
Versions: 1 2 3 4 5 6 7 8 9 10 11 12 13 14 15 16 17 18 19 20 21
000
FTUS43 KIND 250748 AAA
TAFLAF
TAF AMD
KLAF 250748Z 2508/2606 00000KT 4SM BR SCT005 SCT025 BKN250
     FM251000 22003KT 4SM BR VCTS SCT030CB BKN080
     FM251200 21007KT P6SM BKN080
     FM251500 23013G18KT P6SM SCT030 SCT250 PROB30 2520/2602 3SM
      TSRA OVC030CB
     FM260200 31006KT P6SM SCT080 BKN250
      AMD LTD TO CLD VIS AND WIND TIL 251300=

USA.gov is the U.S. government's official web portal to all federal, state and local government web resources and services.